sensor_id;sensor_type;location;lat;lon;timestamp;P1;durP1;ratioP1;P2;durP2;ratioP2
9892;SDS011;4985;49.092;8.542;2023-05-29T00:00:31;5.70;;;3.10;;
9892;SDS011;4985;49.092;8.542;2023-05-29T00:02:58;7.20;;;3.12;;
9892;SDS011;4985;49.092;8.542;2023-05-29T00:05:26;5.07;;;3.50;;
9892;SDS011;4985;49.092;8.542;2023-05-29T00:07:53;5.25;;;3.15;;
9892;SDS011;4985;49.092;8.542;2023-05-29T00:10:20;5.55;;;2.75;;
9892;SDS011;4985;49.092;8.542;2023-05-29T00:12:48;4.03;;;2.83;;
9892;SDS011;4985;49.092;8.542;2023-05-29T00:15:16;4.00;;;3.12;;
9892;SDS011;4985;49.092;8.542;2023-05-29T00:17:42;5.82;;;3.15;;
9892;SDS011;4985;49.092;8.542;2023-05-29T00:20:09;5.18;;;2.97;;
9892;SDS011;4985;49.092;8.542;2023-05-29T00:22:37;5.45;;;3.50;;
9892;SDS011;4985;49.092;8.542;2023-05-29T00:25:04;5.40;;;2.95;;
9892;SDS011;4985;49.092;8.542;2023-05-29T00:27:31;5.00;;;3.25;;
9892;SDS011;4985;49.092;8.542;2023-05-29T00:30:00;4.68;;;2.90;;
9892;SDS011;4985;49.092;8.542;2023-05-29T00:32:27;5.25;;;3.30;;
9892;SDS011;4985;49.092;8.542;2023-05-29T00:34:54;5.45;;;3.20;;
9892;SDS011;4985;49.092;8.542;2023-05-29T00:37:21;5.65;;;3.50;;
9892;SDS011;4985;49.092;8.542;2023-05-29T00:39:48;4.90;;;3.00;;
9892;SDS011;4985;49.092;8.542;2023-05-29T00:42:15;4.18;;;3.12;;
9892;SDS011;4985;49.092;8.542;2023-05-29T00:44:41;4.87;;;2.92;;
9892;SDS011;4985;49.092;8.542;2023-05-29T00:47:09;4.15;;;3.00;;
9892;SDS011;4985;49.092;8.542;2023-05-29T00:49:36;3.70;;;3.10;;
9892;SDS011;4985;49.092;8.542;2023-05-29T00:52:04;4.57;;;3.05;;
9892;SDS011;4985;49.092;8.542;2023-05-29T00:54:32;3.90;;;3.20;;
9892;SDS011;4985;49.092;8.542;2023-05-29T00:57:00;6.45;;;3.58;;
9892;SDS011;4985;49.092;8.542;2023-05-29T00:59:30;4.47;;;3.17;;
9892;SDS011;4985;49.092;8.542;2023-05-29T01:01:58;3.78;;;2.83;;
9892;SDS011;4985;49.092;8.542;2023-05-29T01:04:27;4.62;;;3.42;;
9892;SDS011;4985;49.092;8.542;2023-05-29T01:06:53;3.80;;;2.87;;
9892;SDS011;4985;49.092;8.542;2023-05-29T01:09:20;5.00;;;2.90;;
9892;SDS011;4985;49.092;8.542;2023-05-29T01:11:49;4.40;;;2.75;;
9892;SDS011;4985;49.092;8.542;2023-05-29T01:14:25;4.15;;;2.85;;
9892;SDS011;4985;49.092;8.542;2023-05-29T01:17:00;4.70;;;2.67;;
9892;SDS011;4985;49.092;8.542;2023-05-29T01:19:40;4.15;;;2.70;;
9892;SDS011;4985;49.092;8.542;2023-05-29T01:22:25;5.87;;;3.22;;
9892;SDS011;4985;49.092;8.542;2023-05-29T01:25:04;4.12;;;2.70;;
9892;SDS011;4985;49.092;8.542;2023-05-29T01:27:40;4.07;;;2.80;;
9892;SDS011;4985;49.092;8.542;2023-05-29T01:30:08;3.87;;;2.75;;
9892;SDS011;4985;49.092;8.542;2023-05-29T01:32:38;4.20;;;2.90;;
9892;SDS011;4985;49.092;8.542;2023-05-29T01:35:06;5.25;;;2.92;;
9892;SDS011;4985;49.092;8.542;2023-05-29T01:37:33;4.12;;;2.97;;
9892;SDS011;4985;49.092;8.542;2023-05-29T01:40:00;4.32;;;2.83;;
9892;SDS011;4985;49.092;8.542;2023-05-29T01:42:28;3.83;;;2.75;;
9892;SDS011;4985;49.092;8.542;2023-05-29T01:44:56;4.43;;;2.35;;
9892;SDS011;4985;49.092;8.542;2023-05-29T01:47:23;4.45;;;2.65;;
9892;SDS011;4985;49.092;8.542;2023-05-29T01:49:51;4.43;;;2.70;;
9892;SDS011;4985;49.092;8.542;2023-05-29T01:52:18;3.65;;;2.85;;
9892;SDS011;4985;49.092;8.542;2023-05-29T01:54:44;4.18;;;2.78;;
9892;SDS011;4985;49.092;8.542;2023-05-29T01:57:11;2.95;;;2.35;;
9892;SDS011;4985;49.092;8.542;2023-05-29T01:59:39;4.15;;;2.87;;
9892;SDS011;4985;49.092;8.542;2023-05-29T02:02:08;3.37;;;2.60;;
9892;SDS011;4985;49.092;8.542;2023-05-29T02:04:34;4.55;;;2.67;;
9892;SDS011;4985;49.092;8.542;2023-05-29T02:07:01;4.93;;;2.78;;
9892;SDS011;4985;49.092;8.542;2023-05-29T02:09:28;4.32;;;2.87;;
9892;SDS011;4985;49.092;8.542;2023-05-29T02:11:54;4.93;;;3.00;;
9892;SDS011;4985;49.092;8.542;2023-05-29T02:14:21;4.35;;;2.97;;
9892;SDS011;4985;49.092;8.542;2023-05-29T02:16:49;3.65;;;2.45;;
9892;SDS011;4985;49.092;8.542;2023-05-29T02:19:18;4.62;;;2.87;;
9892;SDS011;4985;49.092;8.542;2023-05-29T02:21:46;4.05;;;2.60;;
9892;SDS011;4985;49.092;8.542;2023-05-29T02:24:13;5.22;;;2.67;;
9892;SDS011;4985;49.092;8.542;2023-05-29T02:26:39;5.12;;;3.08;;
9892;SDS011;4985;49.092;8.542;2023-05-29T02:29:07;5.12;;;2.50;;
9892;SDS011;4985;49.092;8.542;2023-05-29T02:31:33;4.10;;;2.55;;
9892;SDS011;4985;49.092;8.542;2023-05-29T02:34:00;3.30;;;2.67;;
9892;SDS011;4985;49.092;8.542;2023-05-29T02:36:28;4.68;;;3.20;;
9892;SDS011;4985;49.092;8.542;2023-05-29T02:38:55;4.28;;;2.90;;
9892;SDS011;4985;49.092;8.542;2023-05-29T02:41:21;4.87;;;2.90;;
9892;SDS011;4985;49.092;8.542;2023-05-29T02:43:48;3.87;;;2.78;;
9892;SDS011;4985;49.092;8.542;2023-05-29T02:46:14;3.37;;;2.72;;
9892;SDS011;4985;49.092;8.542;2023-05-29T02:48:41;5.57;;;2.80;;
9892;SDS011;4985;49.092;8.542;2023-05-29T02:51:07;5.07;;;3.47;;
9892;SDS011;4985;49.092;8.542;2023-05-29T02:53:36;4.55;;;2.75;;
9892;SDS011;4985;49.092;8.542;2023-05-29T02:56:02;5.55;;;2.83;;
9892;SDS011;4985;49.092;8.542;2023-05-29T02:58:29;5.03;;;2.72;;
9892;SDS011;4985;49.092;8.542;2023-05-29T03:00:56;4.40;;;3.00;;
9892;SDS011;4985;49.092;8.542;2023-05-29T03:03:23;6.62;;;3.08;;
9892;SDS011;4985;49.092;8.542;2023-05-29T03:05:50;4.93;;;2.70;;
9892;SDS011;4985;49.092;8.542;2023-05-29T03:08:16;5.75;;;3.37;;
9892;SDS011;4985;49.092;8.542;2023-05-29T03:10:45;5.07;;;3.15;;
9892;SDS011;4985;49.092;8.542;2023-05-29T03:13:12;4.32;;;2.95;;
9892;SDS011;4985;49.092;8.542;2023-05-29T03:15:38;3.83;;;3.00;;
9892;SDS011;4985;49.092;8.542;2023-05-29T03:18:05;3.90;;;2.87;;
9892;SDS011;4985;49.092;8.542;2023-05-29T03:20:32;4.87;;;3.28;;
9892;SDS011;4985;49.092;8.542;2023-05-29T03:22:58;4.65;;;3.00;;
9892;SDS011;4985;49.092;8.542;2023-05-29T03:25:25;5.22;;;3.00;;
9892;SDS011;4985;49.092;8.542;2023-05-29T03:27:53;4.07;;;2.95;;
9892;SDS011;4985;49.092;8.542;2023-05-29T03:30:19;5.28;;;2.87;;
9892;SDS011;4985;49.092;8.542;2023-05-29T03:32:46;7.03;;;3.53;;
9892;SDS011;4985;49.092;8.542;2023-05-29T03:35:13;5.85;;;2.95;;
9892;SDS011;4985;49.092;8.542;2023-05-29T03:37:39;4.43;;;2.90;;
9892;SDS011;4985;49.092;8.542;2023-05-29T03:40:06;6.07;;;3.55;;
9892;SDS011;4985;49.092;8.542;2023-05-29T03:42:34;5.15;;;3.10;;
9892;SDS011;4985;49.092;8.542;2023-05-29T03:45:02;3.97;;;2.95;;
9892;SDS011;4985;49.092;8.542;2023-05-29T03:47:28;3.53;;;2.80;;
9892;SDS011;4985;49.092;8.542;2023-05-29T03:49:55;4.07;;;2.58;;
9892;SDS011;4985;49.092;8.542;2023-05-29T03:52:22;6.28;;;2.53;;
9892;SDS011;4985;49.092;8.542;2023-05-29T03:54:48;4.90;;;2.72;;
9892;SDS011;4985;49.092;8.542;2023-05-29T03:57:15;4.75;;;3.30;;
9892;SDS011;4985;49.092;8.542;2023-05-29T03:59:41;6.00;;;2.80;;
9892;SDS011;4985;49.092;8.542;2023-05-29T04:02:09;4.20;;;2.70;;
9892;SDS011;4985;49.092;8.542;2023-05-29T04:04:36;3.47;;;2.70;;
9892;SDS011;4985;49.092;8.542;2023-05-29T04:07:04;4.68;;;2.75;;
9892;SDS011;4985;49.092;8.542;2023-05-29T04:09:31;5.97;;;3.28;;
9892;SDS011;4985;49.092;8.542;2023-05-29T04:11:58;3.80;;;2.72;;
9892;SDS011;4985;49.092;8.542;2023-05-29T04:14:27;3.80;;;2.78;;
9892;SDS011;4985;49.092;8.542;2023-05-29T04:16:53;4.75;;;2.85;;
9892;SDS011;4985;49.092;8.542;2023-05-29T04:19:21;4.55;;;3.22;;
9892;SDS011;4985;49.092;8.542;2023-05-29T04:21:48;3.65;;;2.53;;
9892;SDS011;4985;49.092;8.542;2023-05-29T04:24:15;4.40;;;2.97;;
9892;SDS011;4985;49.092;8.542;2023-05-29T04:26:41;3.92;;;2.97;;
9892;SDS011;4985;49.092;8.542;2023-05-29T04:29:08;4.22;;;3.00;;
9892;SDS011;4985;49.092;8.542;2023-05-29T04:31:37;5.10;;;2.85;;
9892;SDS011;4985;49.092;8.542;2023-05-29T04:34:04;4.50;;;2.67;;
9892;SDS011;4985;49.092;8.542;2023-05-29T04:36:32;6.00;;;2.87;;
9892;SDS011;4985;49.092;8.542;2023-05-29T04:39:02;6.43;;;3.03;;
9892;SDS011;4985;49.092;8.542;2023-05-29T04:41:29;3.55;;;2.65;;
9892;SDS011;4985;49.092;8.542;2023-05-29T04:43:56;4.07;;;2.78;;
9892;SDS011;4985;49.092;8.542;2023-05-29T04:46:23;3.83;;;2.80;;
9892;SDS011;4985;49.092;8.542;2023-05-29T04:48:50;4.00;;;2.85;;
9892;SDS011;4985;49.092;8.542;2023-05-29T04:51:18;4.95;;;2.87;;
9892;SDS011;4985;49.092;8.542;2023-05-29T04:53:46;4.45;;;2.92;;
9892;SDS011;4985;49.092;8.542;2023-05-29T04:56:13;3.92;;;2.87;;
9892;SDS011;4985;49.092;8.542;2023-05-29T04:58:39;3.45;;;2.58;;
9892;SDS011;4985;49.092;8.542;2023-05-29T05:01:07;3.65;;;2.40;;
9892;SDS011;4985;49.092;8.542;2023-05-29T05:03:34;4.55;;;2.60;;
9892;SDS011;4985;49.092;8.542;2023-05-29T05:06:01;5.35;;;2.83;;
9892;SDS011;4985;49.092;8.542;2023-05-29T05:08:29;4.25;;;3.00;;
9892;SDS011;4985;49.092;8.542;2023-05-29T05:10:59;3.78;;;2.72;;
9892;SDS011;4985;49.092;8.542;2023-05-29T05:13:26;4.22;;;2.80;;
9892;SDS011;4985;49.092;8.542;2023-05-29T05:15:53;4.32;;;2.67;;
9892;SDS011;4985;49.092;8.542;2023-05-29T05:18:20;4.75;;;2.70;;
9892;SDS011;4985;49.092;8.542;2023-05-29T05:20:47;5.15;;;2.83;;
9892;SDS011;4985;49.092;8.542;2023-05-29T05:23:13;5.28;;;2.87;;
9892;SDS011;4985;49.092;8.542;2023-05-29T05:25:40;4.15;;;2.65;;
9892;SDS011;4985;49.092;8.542;2023-05-29T05:28:08;4.10;;;2.92;;
9892;SDS011;4985;49.092;8.542;2023-05-29T05:30:34;3.90;;;3.17;;
9892;SDS011;4985;49.092;8.542;2023-05-29T05:33:01;4.60;;;3.00;;
9892;SDS011;4985;49.092;8.542;2023-05-29T05:35:28;4.60;;;3.00;;
9892;SDS011;4985;49.092;8.542;2023-05-29T05:37:55;2.87;;;2.40;;
9892;SDS011;4985;49.092;8.542;2023-05-29T05:40:23;3.47;;;2.47;;
9892;SDS011;4985;49.092;8.542;2023-05-29T05:42:49;5.15;;;3.05;;
9892;SDS011;4985;49.092;8.542;2023-05-29T05:45:17;6.78;;;2.80;;
9892;SDS011;4985;49.092;8.542;2023-05-29T05:47:44;3.97;;;2.70;;
9892;SDS011;4985;49.092;8.542;2023-05-29T05:50:11;4.72;;;3.00;;
9892;SDS011;4985;49.092;8.542;2023-05-29T05:52:38;4.60;;;2.70;;
9892;SDS011;4985;49.092;8.542;2023-05-29T05:55:04;7.80;;;2.85;;
9892;SDS011;4985;49.092;8.542;2023-05-29T05:57:32;3.37;;;2.75;;
9892;SDS011;4985;49.092;8.542;2023-05-29T06:00:00;3.28;;;2.47;;
9892;SDS011;4985;49.092;8.542;2023-05-29T06:02:31;4.10;;;2.53;;
9892;SDS011;4985;49.092;8.542;2023-05-29T06:04:57;5.65;;;2.58;;
9892;SDS011;4985;49.092;8.542;2023-05-29T06:07:24;5.65;;;2.95;;
9892;SDS011;4985;49.092;8.542;2023-05-29T06:09:51;3.15;;;2.30;;
9892;SDS011;4985;49.092;8.542;2023-05-29T06:12:17;5.10;;;2.30;;
9892;SDS011;4985;49.092;8.542;2023-05-29T06:14:44;3.55;;;2.42;;
9892;SDS011;4985;49.092;8.542;2023-05-29T06:17:10;3.97;;;2.62;;
9892;SDS011;4985;49.092;8.542;2023-05-29T06:19:39;4.97;;;2.37;;
9892;SDS011;4985;49.092;8.542;2023-05-29T06:22:06;3.87;;;2.30;;
9892;SDS011;4985;49.092;8.542;2023-05-29T06:24:32;3.10;;;2.12;;
9892;SDS011;4985;49.092;8.542;2023-05-29T06:26:59;2.62;;;2.22;;
9892;SDS011;4985;49.092;8.542;2023-05-29T06:29:26;3.50;;;2.15;;
9892;SDS011;4985;49.092;8.542;2023-05-29T06:31:53;3.20;;;2.05;;
9892;SDS011;4985;49.092;8.542;2023-05-29T06:34:19;3.03;;;2.05;;
9892;SDS011;4985;49.092;8.542;2023-05-29T06:36:47;2.75;;;1.80;;
9892;SDS011;4985;49.092;8.542;2023-05-29T06:39:14;6.03;;;2.20;;
9892;SDS011;4985;49.092;8.542;2023-05-29T06:41:43;4.65;;;2.00;;
9892;SDS011;4985;49.092;8.542;2023-05-29T06:44:09;3.78;;;2.10;;
9892;SDS011;4985;49.092;8.542;2023-05-29T06:46:36;3.20;;;2.12;;
9892;SDS011;4985;49.092;8.542;2023-05-29T06:49:02;4.50;;;2.60;;
9892;SDS011;4985;49.092;8.542;2023-05-29T06:51:29;3.28;;;2.22;;
9892;SDS011;4985;49.092;8.542;2023-05-29T06:53:58;2.58;;;2.10;;
9892;SDS011;4985;49.092;8.542;2023-05-29T06:56:25;3.45;;;2.40;;
9892;SDS011;4985;49.092;8.542;2023-05-29T06:58:52;4.12;;;2.50;;
9892;SDS011;4985;49.092;8.542;2023-05-29T07:01:19;4.00;;;2.50;;
9892;SDS011;4985;49.092;8.542;2023-05-29T07:03:46;3.78;;;2.67;;
9892;SDS011;4985;49.092;8.542;2023-05-29T07:06:12;4.72;;;2.30;;
9892;SDS011;4985;49.092;8.542;2023-05-29T07:08:39;3.42;;;2.40;;
9892;SDS011;4985;49.092;8.542;2023-05-29T07:11:07;6.05;;;2.62;;
9892;SDS011;4985;49.092;8.542;2023-05-29T07:13:34;3.45;;;2.70;;
9892;SDS011;4985;49.092;8.542;2023-05-29T07:16:01;4.20;;;3.15;;
9892;SDS011;4985;49.092;8.542;2023-05-29T07:18:27;4.10;;;2.45;;
9892;SDS011;4985;49.092;8.542;2023-05-29T07:20:55;4.32;;;2.87;;
9892;SDS011;4985;49.092;8.542;2023-05-29T07:23:22;3.35;;;2.20;;
9892;SDS011;4985;49.092;8.542;2023-05-29T07:25:50;4.78;;;2.65;;
9892;SDS011;4985;49.092;8.542;2023-05-29T07:28:18;4.95;;;2.40;;
9892;SDS011;4985;49.092;8.542;2023-05-29T07:30:45;2.65;;;2.33;;
9892;SDS011;4985;49.092;8.542;2023-05-29T07:33:11;5.37;;;2.50;;
9892;SDS011;4985;49.092;8.542;2023-05-29T07:35:38;4.25;;;2.85;;
9892;SDS011;4985;49.092;8.542;2023-05-29T07:38:05;3.83;;;2.47;;
9892;SDS011;4985;49.092;8.542;2023-05-29T07:40:31;6.20;;;2.58;;
9892;SDS011;4985;49.092;8.542;2023-05-29T07:42:58;4.57;;;2.60;;
9892;SDS011;4985;49.092;8.542;2023-05-29T07:45:26;5.15;;;2.65;;
9892;SDS011;4985;49.092;8.542;2023-05-29T07:47:53;4.95;;;2.60;;
9892;SDS011;4985;49.092;8.542;2023-05-29T07:50:19;3.00;;;2.25;;
9892;SDS011;4985;49.092;8.542;2023-05-29T07:52:46;3.60;;;2.78;;
9892;SDS011;4985;49.092;8.542;2023-05-29T07:55:13;5.47;;;3.25;;
9892;SDS011;4985;49.092;8.542;2023-05-29T07:57:39;4.70;;;2.55;;
9892;SDS011;4985;49.092;8.542;2023-05-29T08:00:06;4.22;;;2.75;;
9892;SDS011;4985;49.092;8.542;2023-05-29T08:02:35;3.40;;;2.30;;
9892;SDS011;4985;49.092;8.542;2023-05-29T08:05:02;3.87;;;2.47;;
9892;SDS011;4985;49.092;8.542;2023-05-29T08:07:29;5.43;;;2.40;;
9892;SDS011;4985;49.092;8.542;2023-05-29T08:09:57;4.70;;;2.42;;
9892;SDS011;4985;49.092;8.542;2023-05-29T08:12:23;3.33;;;2.25;;
9892;SDS011;4985;49.092;8.542;2023-05-29T08:14:50;4.25;;;2.60;;
9892;SDS011;4985;49.092;8.542;2023-05-29T08:17:16;3.55;;;2.50;;
9892;SDS011;4985;49.092;8.542;2023-05-29T08:19:44;4.78;;;2.55;;
9892;SDS011;4985;49.092;8.542;2023-05-29T08:22:12;4.03;;;2.50;;
9892;SDS011;4985;49.092;8.542;2023-05-29T08:24:40;5.40;;;2.60;;
9892;SDS011;4985;49.092;8.542;2023-05-29T08:27:06;4.18;;;2.58;;
9892;SDS011;4985;49.092;8.542;2023-05-29T08:29:33;4.22;;;2.58;;
9892;SDS011;4985;49.092;8.542;2023-05-29T08:32:01;6.47;;;2.50;;
9892;SDS011;4985;49.092;8.542;2023-05-29T08:34:27;4.35;;;2.78;;
9892;SDS011;4985;49.092;8.542;2023-05-29T08:36:55;4.18;;;2.33;;
9892;SDS011;4985;49.092;8.542;2023-05-29T08:39:22;4.35;;;2.62;;
9892;SDS011;4985;49.092;8.542;2023-05-29T08:41:50;5.78;;;2.80;;
9892;SDS011;4985;49.092;8.542;2023-05-29T08:44:21;4.37;;;2.30;;
9892;SDS011;4985;49.092;8.542;2023-05-29T08:46:49;3.25;;;2.37;;
9892;SDS011;4985;49.092;8.542;2023-05-29T08:49:20;4.72;;;2.75;;
9892;SDS011;4985;49.092;8.542;2023-05-29T08:51:49;5.53;;;2.50;;
9892;SDS011;4985;49.092;8.542;2023-05-29T08:54:20;4.95;;;2.62;;
9892;SDS011;4985;49.092;8.542;2023-05-29T08:56:47;3.90;;;2.62;;
9892;SDS011;4985;49.092;8.542;2023-05-29T08:59:13;3.97;;;2.50;;
9892;SDS011;4985;49.092;8.542;2023-05-29T09:01:41;3.67;;;2.30;;
9892;SDS011;4985;49.092;8.542;2023-05-29T09:04:08;6.25;;;2.85;;
9892;SDS011;4985;49.092;8.542;2023-05-29T09:06:35;5.22;;;2.20;;
9892;SDS011;4985;49.092;8.542;2023-05-29T09:09:03;2.90;;;2.20;;
9892;SDS011;4985;49.092;8.542;2023-05-29T09:11:32;4.25;;;2.80;;
9892;SDS011;4985;49.092;8.542;2023-05-29T09:13:59;4.37;;;2.53;;
9892;SDS011;4985;49.092;8.542;2023-05-29T09:16:27;3.53;;;2.22;;
9892;SDS011;4985;49.092;8.542;2023-05-29T09:18:57;4.45;;;2.53;;
9892;SDS011;4985;49.092;8.542;2023-05-29T09:21:31;5.28;;;3.03;;
9892;SDS011;4985;49.092;8.542;2023-05-29T09:24:02;3.12;;;2.42;;
9892;SDS011;4985;49.092;8.542;2023-05-29T09:26:31;4.87;;;2.42;;
9892;SDS011;4985;49.092;8.542;2023-05-29T09:28:58;4.60;;;2.50;;
9892;SDS011;4985;49.092;8.542;2023-05-29T09:31:24;4.95;;;2.67;;
9892;SDS011;4985;49.092;8.542;2023-05-29T09:33:51;3.47;;;2.60;;
9892;SDS011;4985;49.092;8.542;2023-05-29T09:36:21;6.18;;;2.50;;
9892;SDS011;4985;49.092;8.542;2023-05-29T09:38:48;4.30;;;2.70;;
9892;SDS011;4985;49.092;8.542;2023-05-29T09:41:19;9.50;;;3.15;;
9892;SDS011;4985;49.092;8.542;2023-05-29T09:43:48;3.83;;;2.60;;
9892;SDS011;4985;49.092;8.542;2023-05-29T09:46:15;4.75;;;2.80;;
9892;SDS011;4985;49.092;8.542;2023-05-29T09:48:43;3.90;;;2.67;;
9892;SDS011;4985;49.092;8.542;2023-05-29T09:51:18;4.20;;;2.62;;
9892;SDS011;4985;49.092;8.542;2023-05-29T09:53:47;3.83;;;2.65;;
9892;SDS011;4985;49.092;8.542;2023-05-29T09:56:15;4.70;;;2.80;;
9892;SDS011;4985;49.092;8.542;2023-05-29T09:58:42;4.43;;;2.72;;
9892;SDS011;4985;49.092;8.542;2023-05-29T10:01:12;3.85;;;2.70;;
9892;SDS011;4985;49.092;8.542;2023-05-29T10:03:40;4.25;;;2.67;;
9892;SDS011;4985;49.092;8.542;2023-05-29T10:06:07;5.82;;;3.20;;
9892;SDS011;4985;49.092;8.542;2023-05-29T10:08:37;6.05;;;3.20;;
9892;SDS011;4985;49.092;8.542;2023-05-29T10:11:06;5.10;;;3.10;;
9892;SDS011;4985;49.092;8.542;2023-05-29T10:13:40;5.80;;;2.60;;
9892;SDS011;4985;49.092;8.542;2023-05-29T10:16:15;4.15;;;2.33;;
9892;SDS011;4985;49.092;8.542;2023-05-29T10:18:47;5.75;;;2.37;;
9892;SDS011;4985;49.092;8.542;2023-05-29T10:21:19;3.20;;;2.22;;
9892;SDS011;4985;49.092;8.542;2023-05-29T10:23:49;4.78;;;2.28;;
9892;SDS011;4985;49.092;8.542;2023-05-29T10:26:19;3.70;;;2.80;;
9892;SDS011;4985;49.092;8.542;2023-05-29T10:28:49;5.37;;;2.42;;
9892;SDS011;4985;49.092;8.542;2023-05-29T10:31:24;4.45;;;2.45;;
9892;SDS011;4985;49.092;8.542;2023-05-29T10:34:00;3.90;;;2.60;;
9892;SDS011;4985;49.092;8.542;2023-05-29T10:36:35;4.57;;;2.60;;
9892;SDS011;4985;49.092;8.542;2023-05-29T10:39:08;4.22;;;2.12;;
9892;SDS011;4985;49.092;8.542;2023-05-29T10:41:35;3.72;;;2.60;;
9892;SDS011;4985;49.092;8.542;2023-05-29T10:47:07;3.25;;;2.42;;
9892;SDS011;4985;49.092;8.542;2023-05-29T10:49:37;3.35;;;2.17;;
9892;SDS011;4985;49.092;8.542;2023-05-29T10:52:04;4.80;;;2.62;;
9892;SDS011;4985;49.092;8.542;2023-05-29T10:54:39;3.50;;;2.35;;
9892;SDS011;4985;49.092;8.542;2023-05-29T10:57:16;5.30;;;2.33;;
9892;SDS011;4985;49.092;8.542;2023-05-29T10:59:44;4.87;;;2.42;;
9892;SDS011;4985;49.092;8.542;2023-05-29T11:02:12;3.55;;;2.50;;
9892;SDS011;4985;49.092;8.542;2023-05-29T11:04:44;2.30;;;2.00;;
9892;SDS011;4985;49.092;8.542;2023-05-29T11:07:33;4.82;;;2.40;;
9892;SDS011;4985;49.092;8.542;2023-05-29T11:10:12;3.35;;;2.00;;
9892;SDS011;4985;49.092;8.542;2023-05-29T11:12:55;6.57;;;2.22;;
9892;SDS011;4985;49.092;8.542;2023-05-29T11:15:23;5.15;;;2.65;;
9892;SDS011;4985;49.092;8.542;2023-05-29T11:17:51;2.87;;;2.00;;
9892;SDS011;4985;49.092;8.542;2023-05-29T11:20:27;4.10;;;2.35;;
9892;SDS011;4985;49.092;8.542;2023-05-29T11:23:03;4.65;;;1.90;;
9892;SDS011;4985;49.092;8.542;2023-05-29T11:25:33;3.50;;;2.30;;
9892;SDS011;4985;49.092;8.542;2023-05-29T11:28:01;3.55;;;2.53;;
9892;SDS011;4985;49.092;8.542;2023-05-29T11:30:33;3.10;;;2.20;;
9892;SDS011;4985;49.092;8.542;2023-05-29T11:33:08;3.15;;;2.40;;
9892;SDS011;4985;49.092;8.542;2023-05-29T11:35:42;3.65;;;2.30;;
9892;SDS011;4985;49.092;8.542;2023-05-29T11:38:08;3.90;;;2.40;;
9892;SDS011;4985;49.092;8.542;2023-05-29T11:40:36;4.37;;;2.00;;
9892;SDS011;4985;49.092;8.542;2023-05-29T11:43:03;3.37;;;2.50;;
9892;SDS011;4985;49.092;8.542;2023-05-29T11:45:32;3.40;;;2.45;;
9892;SDS011;4985;49.092;8.542;2023-05-29T11:48:00;3.45;;;2.00;;
9892;SDS011;4985;49.092;8.542;2023-05-29T11:50:29;4.05;;;1.90;;
9892;SDS011;4985;49.092;8.542;2023-05-29T11:52:57;3.87;;;2.87;;
9892;SDS011;4985;49.092;8.542;2023-05-29T11:55:25;4.07;;;2.33;;
9892;SDS011;4985;49.092;8.542;2023-05-29T11:57:56;4.03;;;2.17;;
9892;SDS011;4985;49.092;8.542;2023-05-29T12:00:24;3.50;;;2.20;;
9892;SDS011;4985;49.092;8.542;2023-05-29T12:02:51;3.22;;;2.08;;
9892;SDS011;4985;49.092;8.542;2023-05-29T12:05:18;2.65;;;2.05;;
9892;SDS011;4985;49.092;8.542;2023-05-29T12:07:50;4.03;;;2.33;;
9892;SDS011;4985;49.092;8.542;2023-05-29T12:10:18;3.50;;;2.47;;
9892;SDS011;4985;49.092;8.542;2023-05-29T12:12:49;2.90;;;2.47;;
9892;SDS011;4985;49.092;8.542;2023-05-29T12:15:17;2.97;;;2.42;;
9892;SDS011;4985;49.092;8.542;2023-05-29T12:17:44;2.00;;;1.27;;
9892;SDS011;4985;49.092;8.542;2023-05-29T12:20:12;4.12;;;2.30;;
9892;SDS011;4985;49.092;8.542;2023-05-29T12:22:40;2.62;;;2.20;;
9892;SDS011;4985;49.092;8.542;2023-05-29T12:25:09;1.10;;;1.05;;
9892;SDS011;4985;49.092;8.542;2023-05-29T12:27:38;6.68;;;2.22;;
9892;SDS011;4985;49.092;8.542;2023-05-29T12:30:08;4.28;;;2.40;;
9892;SDS011;4985;49.092;8.542;2023-05-29T12:32:36;2.80;;;1.98;;
9892;SDS011;4985;49.092;8.542;2023-05-29T12:35:10;1.55;;;1.20;;
9892;SDS011;4985;49.092;8.542;2023-05-29T12:37:41;2.37;;;1.60;;
9892;SDS011;4985;49.092;8.542;2023-05-29T12:40:11;3.08;;;2.25;;
9892;SDS011;4985;49.092;8.542;2023-05-29T12:42:41;3.95;;;1.90;;
9892;SDS011;4985;49.092;8.542;2023-05-29T12:45:08;5.47;;;2.40;;
9892;SDS011;4985;49.092;8.542;2023-05-29T12:47:35;4.68;;;2.17;;
9892;SDS011;4985;49.092;8.542;2023-05-29T12:50:18;3.35;;;2.05;;
9892;SDS011;4985;49.092;8.542;2023-05-29T12:52:46;1.87;;;1.77;;
9892;SDS011;4985;49.092;8.542;2023-05-29T12:55:19;2.53;;;1.73;;
9892;SDS011;4985;49.092;8.542;2023-05-29T12:57:46;2.72;;;1.95;;
9892;SDS011;4985;49.092;8.542;2023-05-29T13:00:13;3.10;;;2.03;;
9892;SDS011;4985;49.092;8.542;2023-05-29T13:02:40;1.60;;;1.23;;
9892;SDS011;4985;49.092;8.542;2023-05-29T13:05:07;2.87;;;2.08;;
9892;SDS011;4985;49.092;8.542;2023-05-29T13:07:34;3.33;;;2.08;;
9892;SDS011;4985;49.092;8.542;2023-05-29T13:10:00;3.28;;;2.50;;
9892;SDS011;4985;49.092;8.542;2023-05-29T13:12:29;2.62;;;2.08;;
9892;SDS011;4985;49.092;8.542;2023-05-29T13:14:55;4.70;;;2.65;;
9892;SDS011;4985;49.092;8.542;2023-05-29T13:17:22;2.95;;;2.00;;
9892;SDS011;4985;49.092;8.542;2023-05-29T13:19:49;2.28;;;1.80;;
9892;SDS011;4985;49.092;8.542;2023-05-29T13:22:15;4.00;;;2.03;;
9892;SDS011;4985;49.092;8.542;2023-05-29T13:24:42;2.95;;;1.67;;
9892;SDS011;4985;49.092;8.542;2023-05-29T13:27:08;5.03;;;2.12;;
9892;SDS011;4985;49.092;8.542;2023-05-29T13:29:36;3.37;;;2.00;;
9892;SDS011;4985;49.092;8.542;2023-05-29T13:32:03;3.03;;;2.37;;
9892;SDS011;4985;49.092;8.542;2023-05-29T13:34:30;2.78;;;2.05;;
9892;SDS011;4985;49.092;8.542;2023-05-29T13:36:56;2.20;;;1.77;;
9892;SDS011;4985;49.092;8.542;2023-05-29T13:39:25;3.10;;;1.92;;
9892;SDS011;4985;49.092;8.542;2023-05-29T13:41:52;3.55;;;2.30;;
9892;SDS011;4985;49.092;8.542;2023-05-29T13:44:18;2.90;;;2.17;;
9892;SDS011;4985;49.092;8.542;2023-05-29T13:46:46;3.15;;;1.40;;
9892;SDS011;4985;49.092;8.542;2023-05-29T13:49:13;5.12;;;2.40;;
9892;SDS011;4985;49.092;8.542;2023-05-29T13:51:39;3.85;;;2.50;;
9892;SDS011;4985;49.092;8.542;2023-05-29T13:54:06;1.42;;;1.33;;
9892;SDS011;4985;49.092;8.542;2023-05-29T13:56:33;2.67;;;1.80;;
9892;SDS011;4985;49.092;8.542;2023-05-29T13:58:59;2.87;;;2.30;;
9892;SDS011;4985;49.092;8.542;2023-05-29T14:01:29;1.55;;;1.20;;
9892;SDS011;4985;49.092;8.542;2023-05-29T14:03:58;2.95;;;1.60;;
9892;SDS011;4985;49.092;8.542;2023-05-29T14:06:25;3.78;;;2.35;;
9892;SDS011;4985;49.092;8.542;2023-05-29T14:08:53;6.95;;;2.20;;
9892;SDS011;4985;49.092;8.542;2023-05-29T14:11:20;2.53;;;1.90;;
9892;SDS011;4985;49.092;8.542;2023-05-29T14:13:47;2.53;;;1.80;;
9892;SDS011;4985;49.092;8.542;2023-05-29T14:16:13;2.85;;;2.17;;
9892;SDS011;4985;49.092;8.542;2023-05-29T14:18:41;3.50;;;1.92;;
9892;SDS011;4985;49.092;8.542;2023-05-29T14:21:09;3.72;;;2.00;;
9892;SDS011;4985;49.092;8.542;2023-05-29T14:23:37;6.00;;;2.70;;
9892;SDS011;4985;49.092;8.542;2023-05-29T14:26:03;2.47;;;1.70;;
9892;SDS011;4985;49.092;8.542;2023-05-29T14:28:30;2.50;;;1.55;;
9892;SDS011;4985;49.092;8.542;2023-05-29T14:30:56;1.45;;;0.80;;
9892;SDS011;4985;49.092;8.542;2023-05-29T14:33:23;3.65;;;1.85;;
9892;SDS011;4985;49.092;8.542;2023-05-29T14:35:50;1.73;;;1.45;;
9892;SDS011;4985;49.092;8.542;2023-05-29T14:38:18;2.97;;;2.22;;
9892;SDS011;4985;49.092;8.542;2023-05-29T14:40:45;2.92;;;1.92;;
9892;SDS011;4985;49.092;8.542;2023-05-29T14:43:12;3.20;;;2.03;;
9892;SDS011;4985;49.092;8.542;2023-05-29T14:45:38;1.90;;;1.58;;
9892;SDS011;4985;49.092;8.542;2023-05-29T14:48:05;3.42;;;1.80;;
9892;SDS011;4985;49.092;8.542;2023-05-29T14:50:31;2.90;;;2.20;;
9892;SDS011;4985;49.092;8.542;2023-05-29T14:52:58;3.37;;;2.15;;
9892;SDS011;4985;49.092;8.542;2023-05-29T14:55:26;4.32;;;1.65;;
9892;SDS011;4985;49.092;8.542;2023-05-29T14:57:52;4.43;;;1.77;;
9892;SDS011;4985;49.092;8.542;2023-05-29T15:00:19;3.05;;;1.95;;
9892;SDS011;4985;49.092;8.542;2023-05-29T15:02:46;2.50;;;2.10;;
9892;SDS011;4985;49.092;8.542;2023-05-29T15:05:13;2.72;;;2.12;;
9892;SDS011;4985;49.092;8.542;2023-05-29T15:07:39;2.90;;;2.10;;
9892;SDS011;4985;49.092;8.542;2023-05-29T15:10:06;4.20;;;1.95;;
9892;SDS011;4985;49.092;8.542;2023-05-29T15:12:34;3.95;;;1.70;;
9892;SDS011;4985;49.092;8.542;2023-05-29T15:15:02;2.70;;;1.35;;
9892;SDS011;4985;49.092;8.542;2023-05-29T15:17:29;1.95;;;1.60;;
9892;SDS011;4985;49.092;8.542;2023-05-29T15:19:56;2.47;;;1.83;;
9892;SDS011;4985;49.092;8.542;2023-05-29T15:22:22;3.87;;;1.87;;